createdAt,value
2022-11-13T00:01:47.768Z,-0.23
2022-11-13T00:04:55.017Z,-0.25
2022-11-13T00:07:59.849Z,-0.32
2022-11-13T00:11:20.817Z,-0.37
2022-11-13T00:14:28.150Z,-0.40
2022-11-13T00:17:33.165Z,-0.40
2022-11-13T00:20:38.044Z,-0.40
2022-11-13T00:23:44.117Z,-0.42
2022-11-13T00:26:50.474Z,-0.41
2022-11-13T00:29:58.239Z,-0.42
2022-11-13T00:33:02.493Z,-0.42
2022-11-13T00:36:18.119Z,-0.42
2022-11-13T00:39:24.077Z,-0.45
2022-11-13T00:42:30.456Z,-0.48
2022-11-13T00:45:37.976Z,-0.51
2022-11-13T00:48:42.428Z,-0.51
2022-11-13T00:51:47.794Z,-0.50
2022-11-13T00:54:52.712Z,-0.53
2022-11-13T00:57:57.396Z,-0.60
2022-11-13T01:01:08.504Z,-0.61
2022-11-13T01:04:14.439Z,-0.62
2022-11-13T01:07:22.344Z,-0.65
2022-11-13T01:10:26.824Z,-0.67
2022-11-13T01:13:32.132Z,-0.72
2022-11-13T01:16:37.286Z,-0.73
2022-11-13T01:19:42.324Z,-0.76
2022-11-13T01:22:46.477Z,-0.79
2022-11-13T01:25:50.720Z,-0.82
2022-11-13T01:28:57.147Z,-0.83
2022-11-13T01:32:02.194Z,-0.86
2022-11-13T01:35:06.855Z,-0.87
2022-11-13T01:38:11.577Z,-0.89
2022-11-13T01:41:23.409Z,-0.91
2022-11-13T01:44:47.659Z,-0.95
2022-11-13T01:47:51.990Z,-0.98
2022-11-13T01:50:58.807Z,-1.01
2022-11-13T01:54:08.719Z,-1.05
2022-11-13T01:57:15.954Z,-1.09
2022-11-13T02:00:20.440Z,-1.14
2022-11-13T02:03:27.937Z,-1.19
2022-11-13T02:06:42.714Z,-1.21
2022-11-13T02:09:56.432Z,-1.23
2022-11-13T02:13:01.624Z,-1.26
2022-11-13T02:16:08.193Z,-1.28
2022-11-13T02:19:35.323Z,-1.28
2022-11-13T02:22:49.484Z,-1.27
2022-11-13T02:25:54.889Z,-1.30
2022-11-13T02:29:01.154Z,-1.33
2022-11-13T02:32:05.846Z,-1.35
2022-11-13T02:35:10.339Z,-1.38
2022-11-13T02:38:14.594Z,-1.42
2022-11-13T02:41:20.532Z,-1.45
2022-11-13T02:44:28.491Z,-1.46
2022-11-13T02:47:33.718Z,-1.48
2022-11-13T02:50:38.331Z,-1.48
2022-11-13T02:53:45.996Z,-1.45
2022-11-13T02:56:50.811Z,-1.48
2022-11-13T02:59:55.065Z,-1.48
2022-11-13T03:02:59.506Z,-1.49
2022-11-13T03:06:05.843Z,-1.48
2022-11-13T03:09:10.146Z,-1.47
2022-11-13T03:12:14.655Z,-1.46
2022-11-13T03:15:19.350Z,-1.45
2022-11-13T03:18:24.492Z,-1.45
2022-11-13T03:21:32.252Z,-1.44
2022-11-13T03:24:36.817Z,-1.44
2022-11-13T03:27:44.423Z,-1.44
2022-11-13T03:30:49.034Z,-1.42
2022-11-13T03:33:57.399Z,-1.43
2022-11-13T03:37:01.988Z,-1.42
2022-11-13T03:40:07.684Z,-1.41
2022-11-13T03:43:12.911Z,-1.39
2022-11-13T03:46:18.738Z,-1.40
2022-11-13T03:49:22.949Z,-1.41
2022-11-13T03:52:27.200Z,-1.43
2022-11-13T03:55:32.186Z,-1.44
2022-11-13T03:58:40.293Z,-1.48
2022-11-13T04:01:45.021Z,-1.47
2022-11-13T04:04:51.113Z,-1.48
2022-11-13T04:07:57.008Z,-1.50
2022-11-13T04:11:07.846Z,-1.49
2022-11-13T04:14:11.872Z,-1.51
2022-11-13T04:17:16.242Z,-1.56
2022-11-13T04:20:21.587Z,-1.58
2022-11-13T04:23:26.105Z,-1.59
2022-11-13T04:26:30.781Z,-1.59
2022-11-13T04:29:35.069Z,-1.59
2022-11-13T04:32:42.916Z,-1.61
2022-11-13T04:35:48.573Z,-1.63
2022-11-13T04:38:53.312Z,-1.60
2022-11-13T04:42:17.394Z,-1.58
2022-11-13T04:45:24.009Z,-1.59
2022-11-13T04:48:30.588Z,-1.56
2022-11-13T04:51:35.973Z,-1.54
2022-11-13T04:54:41.132Z,-1.51
2022-11-13T04:57:45.786Z,-1.50
2022-11-13T05:00:51.079Z,-1.52
2022-11-13T05:03:55.615Z,-1.53
2022-11-13T05:07:00.251Z,-1.57
2022-11-13T05:10:06.272Z,-1.56
2022-11-13T05:13:10.451Z,-1.52
2022-11-13T05:16:15.515Z,-1.55
2022-11-13T05:19:20.383Z,-1.50
2022-11-13T05:22:25.156Z,-1.48
2022-11-13T05:25:30.373Z,-1.46
2022-11-13T05:28:35.297Z,-1.46
2022-11-13T05:31:41.361Z,-1.46
2022-11-13T05:34:47.023Z,-1.44
2022-11-13T05:37:53.165Z,-1.41
2022-11-13T05:41:18.894Z,-1.39
2022-11-13T05:44:23.607Z,-1.39
2022-11-13T05:47:28.134Z,-1.37
2022-11-13T05:50:32.572Z,-1.37
2022-11-13T05:53:38.399Z,-1.36
2022-11-13T05:56:44.628Z,-1.36
2022-11-13T05:59:49.044Z,-1.36
2022-11-13T06:02:53.993Z,-1.36
2022-11-13T06:06:00.527Z,-1.34
2022-11-13T06:09:06.644Z,-1.34
2022-11-13T06:12:11.784Z,-1.33
2022-11-13T06:15:16.832Z,-1.33
2022-11-13T06:18:26.690Z,-1.29
2022-11-13T06:21:34.812Z,-1.27
2022-11-13T06:24:40.544Z,-1.31
2022-11-13T06:27:44.688Z,-1.28
2022-11-13T06:30:51.985Z,-1.26
2022-11-13T06:34:00.432Z,-1.25
2022-11-13T06:37:05.399Z,-1.21
2022-11-13T06:40:10.391Z,-1.19
2022-11-13T06:43:15.088Z,-1.18
2022-11-13T06:46:21.809Z,-1.16
2022-11-13T06:49:26.647Z,-1.12
2022-11-13T06:52:30.958Z,-1.08
2022-11-13T06:55:35.610Z,-1.07
2022-11-13T06:58:40.881Z,-1.02
2022-11-13T07:01:45.376Z,-0.97
2022-11-13T07:04:49.700Z,-0.94
2022-11-13T07:07:55.797Z,-0.93
2022-11-13T07:11:02.171Z,-0.93
2022-11-13T07:14:11.134Z,-0.94
2022-11-13T07:17:16.810Z,-0.92
2022-11-13T07:20:21.250Z,-0.90
2022-11-13T07:23:26.299Z,-0.86
2022-11-13T07:26:31.075Z,-0.82
2022-11-13T07:29:36.635Z,-0.79
2022-11-13T07:32:44.412Z,-0.77
2022-11-13T07:35:48.556Z,-0.75
2022-11-13T07:38:59.188Z,-0.72
2022-11-13T07:42:04.462Z,-0.69
2022-11-13T07:45:09.529Z,-0.70
2022-11-13T07:48:15.022Z,-0.70
2022-11-13T07:51:19.472Z,-0.69
2022-11-13T07:54:24.414Z,-0.67
2022-11-13T07:57:28.850Z,-0.67
2022-11-13T08:00:35.481Z,-0.66
2022-11-13T08:03:40.818Z,-0.61
2022-11-13T08:06:51.927Z,-0.57
2022-11-13T08:10:00.450Z,-0.54
2022-11-13T08:13:07.625Z,-0.50
2022-11-13T08:16:11.876Z,-0.47
2022-11-13T08:19:16.374Z,-0.44
2022-11-13T08:22:21.091Z,-0.41
2022-11-13T08:25:29.610Z,-0.37
2022-11-13T08:28:37.185Z,-0.36
2022-11-13T08:31:44.193Z,-0.33
2022-11-13T08:34:49.645Z,-0.27
2022-11-13T08:37:54.806Z,-0.22
2022-11-13T08:41:05.800Z,-0.18
2022-11-13T08:44:14.996Z,-0.12
2022-11-13T08:47:23.423Z,-0.07
2022-11-13T08:50:32.885Z,-0.03
2022-11-13T08:53:37.768Z,0.05
2022-11-13T08:56:42.786Z,0.09
2022-11-13T08:59:49.870Z,0.12
2022-11-13T09:03:00.455Z,0.18
2022-11-13T09:06:06.583Z,0.23
2022-11-13T09:09:11.716Z,0.26
2022-11-13T09:12:16.100Z,0.26
2022-11-13T09:15:24.280Z,0.31
2022-11-13T09:18:30.475Z,0.40
2022-11-13T09:21:39.692Z,0.45
2022-11-13T09:24:46.793Z,0.51
2022-11-13T09:28:01.447Z,0.56
2022-11-13T09:31:07.699Z,0.64
2022-11-13T09:34:15.798Z,0.75
2022-11-13T09:37:23.961Z,0.83
2022-11-13T09:40:33.722Z,0.96
2022-11-13T09:44:15.733Z,1.07
2022-11-13T09:47:35.945Z,1.19
2022-11-13T09:50:41.638Z,1.29
2022-11-13T09:53:46.577Z,1.39
2022-11-13T09:57:19.419Z,1.47
2022-11-13T10:00:33.030Z,1.51
2022-11-13T10:04:00.768Z,1.59
2022-11-13T10:07:13.841Z,1.67
2022-11-13T10:10:21.669Z,1.73
2022-11-13T10:13:32.696Z,1.82
2022-11-13T10:17:02.775Z,1.96
2022-11-13T10:20:24.688Z,2.05
2022-11-13T10:23:35.326Z,2.13
2022-11-13T10:26:39.829Z,2.19
2022-11-13T10:29:48.990Z,2.30
2022-11-13T10:32:54.011Z,2.47
2022-11-13T10:36:14.287Z,2.62
2022-11-13T10:39:18.493Z,2.76
2022-11-13T10:42:24.140Z,2.83
2022-11-13T10:45:28.431Z,2.93
2022-11-13T10:48:36.285Z,3.02
2022-11-13T10:51:41.137Z,3.19
2022-11-13T10:54:45.820Z,3.32
2022-11-13T10:57:58.841Z,3.43
2022-11-13T11:01:23.141Z,3.57
2022-11-13T11:04:27.663Z,3.68
2022-11-13T11:07:40.582Z,3.78
2022-11-13T11:11:14.149Z,3.85
2022-11-13T11:14:25.621Z,3.96
2022-11-13T11:17:49.520Z,4.01
2022-11-13T11:20:59.575Z,4.02
2022-11-13T11:24:25.726Z,4.07
2022-11-13T11:27:37.440Z,4.09
2022-11-13T11:30:56.238Z,4.11
2022-11-13T11:34:21.795Z,4.10
2022-11-13T11:37:36.804Z,4.09
2022-11-13T11:40:52.040Z,4.08
2022-11-13T11:44:15.659Z,4.04
2022-11-13T11:47:20.565Z,4.04
2022-11-13T11:51:02.889Z,4.03
2022-11-13T11:54:27.691Z,4.05
2022-11-13T11:57:55.322Z,4.09
2022-11-13T12:01:14.258Z,4.13
2022-11-13T12:04:32.174Z,4.11
2022-11-13T12:07:51.523Z,4.12
2022-11-13T12:11:19.818Z,4.14
2022-11-13T12:14:58.071Z,4.15
2022-11-13T12:18:12.170Z,4.17
2022-11-13T12:21:22.495Z,4.20
2022-11-13T12:24:51.482Z,4.20
2022-11-13T12:28:05.893Z,4.23
2022-11-13T12:31:47.972Z,4.28
2022-11-13T12:35:16.734Z,4.30
2022-11-13T12:38:39.908Z,4.33
2022-11-13T12:41:59.179Z,4.34
2022-11-13T12:45:46.278Z,4.37
2022-11-13T12:48:50.677Z,4.39
2022-11-13T12:52:01.471Z,4.40
2022-11-13T12:55:25.884Z,4.41
2022-11-13T12:58:32.674Z,4.44
2022-11-13T13:01:48.266Z,4.44
2022-11-13T13:05:13.754Z,4.45
2022-11-13T13:08:39.934Z,4.47
2022-11-13T13:12:24.153Z,4.48
2022-11-13T13:15:40.854Z,4.49
2022-11-13T13:18:45.664Z,4.49
2022-11-13T13:21:50.519Z,4.52
2022-11-13T13:25:25.992Z,4.55
2022-11-13T13:28:32.155Z,4.58
2022-11-13T13:31:55.527Z,4.59
2022-11-13T13:35:13.883Z,4.61
2022-11-13T13:38:52.253Z,4.64
2022-11-13T13:41:59.901Z,4.69
2022-11-13T13:45:25.557Z,4.72
2022-11-13T13:48:31.880Z,4.74
2022-11-13T13:51:52.523Z,4.77
2022-11-13T13:54:58.470Z,4.80
2022-11-13T13:58:08.561Z,4.83
2022-11-13T14:01:20.053Z,4.87
2022-11-13T14:04:48.791Z,4.89
2022-11-13T14:07:52.950Z,4.94
2022-11-13T14:10:56.991Z,4.96
2022-11-13T14:14:17.465Z,4.97
2022-11-13T14:17:24.683Z,5.00
2022-11-13T14:20:30.000Z,5.03
2022-11-13T14:23:52.312Z,5.06
2022-11-13T14:26:58.646Z,5.09
2022-11-13T14:30:04.643Z,5.11
2022-11-13T14:33:11.345Z,5.13
2022-11-13T14:36:25.458Z,5.14
2022-11-13T14:39:33.768Z,5.16
2022-11-13T14:42:43.689Z,5.17
2022-11-13T14:45:58.812Z,5.18
2022-11-13T14:49:03.716Z,5.19
2022-11-13T14:52:20.873Z,5.19
2022-11-13T14:55:31.604Z,5.20
2022-11-13T14:58:43.925Z,5.20
2022-11-13T15:01:55.712Z,5.21
2022-11-13T15:04:59.890Z,5.22
2022-11-13T15:08:04.249Z,5.24
2022-11-13T15:11:12.922Z,5.26
2022-11-13T15:14:19.463Z,5.28
2022-11-13T15:17:24.265Z,5.30
2022-11-13T15:20:30.623Z,5.30
2022-11-13T15:23:35.091Z,5.32
2022-11-13T15:26:40.648Z,5.34
2022-11-13T15:29:45.456Z,5.37
2022-11-13T15:32:53.900Z,5.38
2022-11-13T15:35:58.618Z,5.40
2022-11-13T15:39:06.631Z,5.39
2022-11-13T15:42:15.519Z,5.39
2022-11-13T15:45:19.800Z,5.37
2022-11-13T15:48:24.191Z,5.33
2022-11-13T15:51:42.275Z,5.30
2022-11-13T15:54:46.861Z,5.26
2022-11-13T15:57:51.260Z,5.22
2022-11-13T16:00:55.852Z,5.19
2022-11-13T16:04:02.423Z,5.13
2022-11-13T16:07:12.469Z,5.07
2022-11-13T16:10:16.899Z,4.96
2022-11-13T16:13:21.211Z,4.87
2022-11-13T16:16:28.197Z,4.75
2022-11-13T16:19:32.594Z,4.62
2022-11-13T16:22:36.903Z,4.52
2022-11-13T16:25:44.049Z,4.42
2022-11-13T16:29:12.833Z,4.33
2022-11-13T16:32:16.680Z,4.23
2022-11-13T16:35:21.366Z,4.12
2022-11-13T16:38:25.855Z,4.03
2022-11-13T16:41:31.454Z,3.96
2022-11-13T16:44:35.728Z,3.88
2022-11-13T16:47:40.130Z,3.81
2022-11-13T16:50:44.408Z,3.73
2022-11-13T16:53:48.593Z,3.65
2022-11-13T16:56:52.965Z,3.57
2022-11-13T16:59:57.315Z,3.49
2022-11-13T17:03:01.739Z,3.41
2022-11-13T17:06:06.098Z,3.31
2022-11-13T17:09:11.203Z,3.23
2022-11-13T17:12:18.011Z,3.16
2022-11-13T17:15:26.459Z,3.12
2022-11-13T17:18:30.580Z,3.06
2022-11-13T17:21:36.991Z,3.00
2022-11-13T17:24:43.363Z,2.92
2022-11-13T17:27:47.673Z,2.88
2022-11-13T17:30:56.474Z,2.84
2022-11-13T17:34:03.215Z,2.81
2022-11-13T17:37:07.622Z,2.77
2022-11-13T17:40:12.216Z,2.75
2022-11-13T17:43:16.677Z,2.72
2022-11-13T17:46:21.033Z,2.71
2022-11-13T17:49:25.205Z,2.70
2022-11-13T17:52:29.666Z,2.70
2022-11-13T17:55:34.077Z,2.71
2022-11-13T17:58:40.064Z,2.72
2022-11-13T18:01:44.249Z,2.75
2022-11-13T18:04:50.209Z,2.78
2022-11-13T18:07:54.147Z,2.80
2022-11-13T18:10:58.930Z,2.84
2022-11-13T18:14:03.288Z,2.91
2022-11-13T18:17:07.573Z,2.99
2022-11-13T18:20:11.997Z,3.08
2022-11-13T18:23:16.691Z,3.16
2022-11-13T18:26:20.951Z,3.24
2022-11-13T18:29:25.372Z,3.29
2022-11-13T18:32:29.753Z,3.35
2022-11-13T18:35:33.895Z,3.44
2022-11-13T18:38:38.239Z,3.50
2022-11-13T18:41:42.685Z,3.58
2022-11-13T18:44:46.984Z,3.64
2022-11-13T18:47:51.623Z,3.72
2022-11-13T18:50:59.741Z,3.78
2022-11-13T18:54:09.784Z,3.84
2022-11-13T18:57:14.966Z,3.89
2022-11-13T19:00:19.393Z,3.93
2022-11-13T19:03:24.593Z,3.98
2022-11-13T19:06:28.860Z,4.01
2022-11-13T19:09:33.035Z,4.04
2022-11-13T19:12:38.078Z,4.06
2022-11-13T19:15:42.978Z,4.08
2022-11-13T19:18:52.975Z,4.08
2022-11-13T19:21:57.350Z,4.10
2022-11-13T19:25:03.464Z,4.12
2022-11-13T19:28:07.688Z,4.14
2022-11-13T19:31:15.447Z,4.20
2022-11-13T19:34:20.063Z,4.24
2022-11-13T19:37:24.341Z,4.29
2022-11-13T19:40:29.008Z,4.32
2022-11-13T19:43:38.388Z,4.37
2022-11-13T19:46:42.798Z,4.41
2022-11-13T19:49:47.237Z,4.43
2022-11-13T19:52:51.829Z,4.43
2022-11-13T19:55:56.401Z,4.47
2022-11-13T19:59:00.555Z,4.57
2022-11-13T20:02:05.073Z,4.60
2022-11-13T20:05:10.287Z,4.65
2022-11-13T20:08:14.913Z,4.71
2022-11-13T20:11:19.286Z,4.76
2022-11-13T20:14:23.681Z,4.84
2022-11-13T20:17:28.151Z,4.88
2022-11-13T20:20:32.618Z,4.94
2022-11-13T20:23:38.244Z,4.97
2022-11-13T20:26:42.991Z,5.03
2022-11-13T20:29:47.057Z,5.05
2022-11-13T20:32:51.307Z,5.09
2022-11-13T20:35:55.753Z,5.12
2022-11-13T20:38:59.900Z,5.16
2022-11-13T20:42:05.518Z,5.19
2022-11-13T20:45:10.310Z,5.23
2022-11-13T20:48:14.328Z,5.26
2022-11-13T20:51:27.313Z,5.31
2022-11-13T20:54:31.487Z,5.36
2022-11-13T20:57:40.763Z,5.41
2022-11-13T21:00:45.430Z,5.44
2022-11-13T21:03:50.852Z,5.50
2022-11-13T21:06:55.126Z,5.54
2022-11-13T21:09:59.139Z,5.56
2022-11-13T21:13:03.211Z,5.59
2022-11-13T21:16:09.021Z,5.58
2022-11-13T21:19:13.343Z,5.56
2022-11-13T21:22:17.790Z,5.56
2022-11-13T21:25:23.208Z,5.53
2022-11-13T21:28:32.320Z,5.50
2022-11-13T21:31:37.857Z,5.46
2022-11-13T21:34:42.308Z,5.42
2022-11-13T21:37:46.585Z,5.39
2022-11-13T21:41:18.622Z,5.39
2022-11-13T21:44:23.295Z,5.39
2022-11-13T21:47:27.616Z,5.36
2022-11-13T21:50:31.969Z,5.33
2022-11-13T21:53:37.998Z,5.32
2022-11-13T21:56:42.362Z,5.33
2022-11-13T21:59:46.782Z,5.29
2022-11-13T22:02:51.163Z,5.28
2022-11-13T22:06:19.526Z,5.26
2022-11-13T22:09:25.605Z,5.26
2022-11-13T22:12:29.618Z,5.25
2022-11-13T22:15:33.907Z,5.27
2022-11-13T22:18:38.139Z,5.30
2022-11-13T22:21:43.436Z,5.30
2022-11-13T22:24:48.124Z,5.28
2022-11-13T22:27:52.234Z,5.27
2022-11-13T22:30:56.607Z,5.26
2022-11-13T22:34:02.017Z,5.26
2022-11-13T22:37:06.227Z,5.26
2022-11-13T22:40:11.257Z,5.25
2022-11-13T22:43:15.783Z,5.25
2022-11-13T22:46:22.910Z,5.24
2022-11-13T22:49:27.095Z,5.25
2022-11-13T22:52:31.323Z,5.26
2022-11-13T22:55:35.749Z,5.25
2022-11-13T22:58:40.570Z,5.23
2022-11-13T23:01:46.539Z,5.20
2022-11-13T23:04:50.638Z,5.18
2022-11-13T23:07:54.937Z,5.17
2022-11-13T23:10:59.371Z,5.17
2022-11-13T23:14:06.393Z,5.14
2022-11-13T23:17:10.611Z,5.16
2022-11-13T23:20:15.017Z,5.12
2022-11-13T23:23:19.360Z,5.10
2022-11-13T23:26:24.913Z,5.11
2022-11-13T23:29:29.445Z,5.09
2022-11-13T23:32:34.010Z,5.09
2022-11-13T23:35:38.510Z,5.09
2022-11-13T23:38:42.829Z,5.08
2022-11-13T23:41:47.076Z,5.06
2022-11-13T23:44:51.434Z,5.04
2022-11-13T23:47:55.829Z,5.03
2022-11-13T23:51:01.668Z,5.04
2022-11-13T23:54:06.064Z,5.04
2022-11-13T23:57:10.618Z,5.08
